sensor_id;sensor_type;location;lat;lon;timestamp;temperature;humidity
82243;DHT22;71844;51.528;4.442;2024-03-17T00:01:47;8.40;68.80
82243;DHT22;71844;51.528;4.442;2024-03-17T00:04:12;8.30;68.90
82243;DHT22;71844;51.528;4.442;2024-03-17T00:06:38;8.30;69.00
82243;DHT22;71844;51.528;4.442;2024-03-17T00:09:04;8.40;69.20
82243;DHT22;71844;51.528;4.442;2024-03-17T00:11:35;8.30;69.40
82243;DHT22;71844;51.528;4.442;2024-03-17T00:14:02;8.40;69.30
82243;DHT22;71844;51.528;4.442;2024-03-17T00:16:28;8.30;69.40
82243;DHT22;71844;51.528;4.442;2024-03-17T00:18:54;8.40;69.40
82243;DHT22;71844;51.528;4.442;2024-03-17T00:21:21;8.30;69.40
82243;DHT22;71844;51.528;4.442;2024-03-17T00:23:48;8.30;69.50
82243;DHT22;71844;51.528;4.442;2024-03-17T00:26:17;8.30;69.60
82243;DHT22;71844;51.528;4.442;2024-03-17T00:28:46;8.30;69.70
82243;DHT22;71844;51.528;4.442;2024-03-17T00:31:14;8.30;69.70
82243;DHT22;71844;51.528;4.442;2024-03-17T00:33:41;8.30;69.70
82243;DHT22;71844;51.528;4.442;2024-03-17T00:36:07;8.30;69.90
82243;DHT22;71844;51.528;4.442;2024-03-17T00:38:33;8.30;69.90
82243;DHT22;71844;51.528;4.442;2024-03-17T00:40:59;8.30;70.00
82243;DHT22;71844;51.528;4.442;2024-03-17T00:43:28;8.30;70.10
82243;DHT22;71844;51.528;4.442;2024-03-17T00:45:53;8.30;70.10
82243;DHT22;71844;51.528;4.442;2024-03-17T00:48:19;8.30;70.10
82243;DHT22;71844;51.528;4.442;2024-03-17T00:50:46;8.30;70.10
82243;DHT22;71844;51.528;4.442;2024-03-17T00:53:12;8.30;70.10
82243;DHT22;71844;51.528;4.442;2024-03-17T00:55:38;8.30;70.10
82243;DHT22;71844;51.528;4.442;2024-03-17T00:58:04;8.30;70.20
82243;DHT22;71844;51.528;4.442;2024-03-17T01:00:31;8.30;70.20
82243;DHT22;71844;51.528;4.442;2024-03-17T01:02:59;8.30;70.20
82243;DHT22;71844;51.528;4.442;2024-03-17T01:05:24;8.30;70.20
82243;DHT22;71844;51.528;4.442;2024-03-17T01:07:50;8.30;70.10
82243;DHT22;71844;51.528;4.442;2024-03-17T01:10:16;8.20;70.10
82243;DHT22;71844;51.528;4.442;2024-03-17T01:12:42;8.20;70.10
82243;DHT22;71844;51.528;4.442;2024-03-17T01:15:08;8.20;70.20
82243;DHT22;71844;51.528;4.442;2024-03-17T01:17:34;8.20;70.30
82243;DHT22;71844;51.528;4.442;2024-03-17T01:20:00;8.20;70.30
82243;DHT22;71844;51.528;4.442;2024-03-17T01:22:28;8.20;70.30
82243;DHT22;71844;51.528;4.442;2024-03-17T01:24:54;8.20;70.40
82243;DHT22;71844;51.528;4.442;2024-03-17T01:30:06;8.20;70.40
82243;DHT22;71844;51.528;4.442;2024-03-17T01:32:32;8.30;70.40
82243;DHT22;71844;51.528;4.442;2024-03-17T01:34:58;8.20;70.50
82243;DHT22;71844;51.528;4.442;2024-03-17T01:37:24;8.30;70.40
82243;DHT22;71844;51.528;4.442;2024-03-17T01:39:50;8.30;70.40
82243;DHT22;71844;51.528;4.442;2024-03-17T01:42:16;8.30;70.40
82243;DHT22;71844;51.528;4.442;2024-03-17T01:44:42;8.30;70.50
82243;DHT22;71844;51.528;4.442;2024-03-17T01:47:08;8.30;70.50
82243;DHT22;71844;51.528;4.442;2024-03-17T01:49:35;8.30;70.40
82243;DHT22;71844;51.528;4.442;2024-03-17T01:52:02;8.30;70.40
82243;DHT22;71844;51.528;4.442;2024-03-17T01:54:29;8.30;70.40
82243;DHT22;71844;51.528;4.442;2024-03-17T01:56:55;8.30;70.50
82243;DHT22;71844;51.528;4.442;2024-03-17T01:59:21;8.30;70.50
82243;DHT22;71844;51.528;4.442;2024-03-17T02:04:22;8.30;70.30
82243;DHT22;71844;51.528;4.442;2024-03-17T02:06:49;8.30;70.40
82243;DHT22;71844;51.528;4.442;2024-03-17T02:09:14;8.20;70.30
82243;DHT22;71844;51.528;4.442;2024-03-17T02:11:40;8.20;70.30
82243;DHT22;71844;51.528;4.442;2024-03-17T02:14:07;8.20;70.50
82243;DHT22;71844;51.528;4.442;2024-03-17T02:16:33;8.20;70.50
82243;DHT22;71844;51.528;4.442;2024-03-17T02:18:59;8.10;70.40
82243;DHT22;71844;51.528;4.442;2024-03-17T02:21:26;8.10;70.50
82243;DHT22;71844;51.528;4.442;2024-03-17T02:23:53;8.00;70.50
82243;DHT22;71844;51.528;4.442;2024-03-17T02:26:20;8.00;70.70
82243;DHT22;71844;51.528;4.442;2024-03-17T02:28:46;8.00;70.70
82243;DHT22;71844;51.528;4.442;2024-03-17T02:31:14;8.00;70.70
82243;DHT22;71844;51.528;4.442;2024-03-17T02:33:42;8.00;70.70
82243;DHT22;71844;51.528;4.442;2024-03-17T02:36:08;7.90;70.80
82243;DHT22;71844;51.528;4.442;2024-03-17T02:38:35;7.90;70.90
82243;DHT22;71844;51.528;4.442;2024-03-17T02:41:19;7.90;71.10
82243;DHT22;71844;51.528;4.442;2024-03-17T02:43:46;7.90;71.20
82243;DHT22;71844;51.528;4.442;2024-03-17T02:46:16;7.80;71.30
82243;DHT22;71844;51.528;4.442;2024-03-17T02:48:44;7.80;71.30
82243;DHT22;71844;51.528;4.442;2024-03-17T02:51:13;7.90;71.50
82243;DHT22;71844;51.528;4.442;2024-03-17T02:53:43;7.90;71.40
82243;DHT22;71844;51.528;4.442;2024-03-17T02:56:11;7.90;71.60
82243;DHT22;71844;51.528;4.442;2024-03-17T02:58:38;7.90;71.60
82243;DHT22;71844;51.528;4.442;2024-03-17T03:01:06;7.90;71.60
82243;DHT22;71844;51.528;4.442;2024-03-17T03:03:32;7.90;71.50
82243;DHT22;71844;51.528;4.442;2024-03-17T03:05:58;8.00;71.50
82243;DHT22;71844;51.528;4.442;2024-03-17T03:08:26;7.90;71.50
82243;DHT22;71844;51.528;4.442;2024-03-17T03:10:52;7.90;71.40
82243;DHT22;71844;51.528;4.442;2024-03-17T03:13:18;7.90;71.40
82243;DHT22;71844;51.528;4.442;2024-03-17T03:15:47;7.80;71.40
82243;DHT22;71844;51.528;4.442;2024-03-17T03:18:14;7.70;71.50
82243;DHT22;71844;51.528;4.442;2024-03-17T03:20:40;7.70;71.60
82243;DHT22;71844;51.528;4.442;2024-03-17T03:23:05;7.70;71.70
82243;DHT22;71844;51.528;4.442;2024-03-17T03:25:32;7.60;71.70
82243;DHT22;71844;51.528;4.442;2024-03-17T03:27:58;7.60;71.80
82243;DHT22;71844;51.528;4.442;2024-03-17T03:30:24;7.50;71.90
82243;DHT22;71844;51.528;4.442;2024-03-17T03:32:50;7.50;72.10
82243;DHT22;71844;51.528;4.442;2024-03-17T03:35:16;7.50;72.10
82243;DHT22;71844;51.528;4.442;2024-03-17T03:37:42;7.40;72.20
82243;DHT22;71844;51.528;4.442;2024-03-17T03:40:08;7.40;72.20
82243;DHT22;71844;51.528;4.442;2024-03-17T03:42:44;7.40;72.30
82243;DHT22;71844;51.528;4.442;2024-03-17T03:45:11;7.40;72.30
82243;DHT22;71844;51.528;4.442;2024-03-17T03:47:42;7.30;72.50
82243;DHT22;71844;51.528;4.442;2024-03-17T03:50:15;7.30;72.50
82243;DHT22;71844;51.528;4.442;2024-03-17T03:52:41;7.30;72.50
82243;DHT22;71844;51.528;4.442;2024-03-17T03:55:12;7.20;72.50
82243;DHT22;71844;51.528;4.442;2024-03-17T03:57:41;7.20;72.70
82243;DHT22;71844;51.528;4.442;2024-03-17T04:00:08;7.20;72.80
82243;DHT22;71844;51.528;4.442;2024-03-17T04:03:10;7.10;72.90
82243;DHT22;71844;51.528;4.442;2024-03-17T04:05:37;7.10;72.90
82243;DHT22;71844;51.528;4.442;2024-03-17T04:08:03;7.10;73.00
82243;DHT22;71844;51.528;4.442;2024-03-17T04:10:30;7.10;73.00
82243;DHT22;71844;51.528;4.442;2024-03-17T04:12:56;7.00;73.30
82243;DHT22;71844;51.528;4.442;2024-03-17T04:15:22;7.10;73.20
82243;DHT22;71844;51.528;4.442;2024-03-17T04:17:49;7.00;73.20
82243;DHT22;71844;51.528;4.442;2024-03-17T04:20:15;7.00;73.40
82243;DHT22;71844;51.528;4.442;2024-03-17T04:22:41;7.00;73.50
82243;DHT22;71844;51.528;4.442;2024-03-17T04:25:09;7.00;73.60
82243;DHT22;71844;51.528;4.442;2024-03-17T04:27:35;7.00;73.60
82243;DHT22;71844;51.528;4.442;2024-03-17T04:30:01;7.00;74.00
82243;DHT22;71844;51.528;4.442;2024-03-17T04:32:29;6.90;73.80
82243;DHT22;71844;51.528;4.442;2024-03-17T04:34:56;6.90;73.80
82243;DHT22;71844;51.528;4.442;2024-03-17T04:37:22;6.90;73.90
82243;DHT22;71844;51.528;4.442;2024-03-17T04:39:48;6.90;73.80
82243;DHT22;71844;51.528;4.442;2024-03-17T04:42:16;6.90;73.90
82243;DHT22;71844;51.528;4.442;2024-03-17T04:44:46;6.90;74.00
82243;DHT22;71844;51.528;4.442;2024-03-17T04:47:12;6.90;74.00
82243;DHT22;71844;51.528;4.442;2024-03-17T04:49:41;6.90;74.20
82243;DHT22;71844;51.528;4.442;2024-03-17T04:52:08;6.80;74.20
82243;DHT22;71844;51.528;4.442;2024-03-17T04:54:35;6.90;74.30
82243;DHT22;71844;51.528;4.442;2024-03-17T04:57:01;6.80;74.40
82243;DHT22;71844;51.528;4.442;2024-03-17T04:59:27;6.80;74.40
82243;DHT22;71844;51.528;4.442;2024-03-17T05:01:54;6.80;74.50
82243;DHT22;71844;51.528;4.442;2024-03-17T05:04:19;6.80;74.70
82243;DHT22;71844;51.528;4.442;2024-03-17T05:09:31;6.90;75.00
82243;DHT22;71844;51.528;4.442;2024-03-17T05:11:57;7.00;75.10
82243;DHT22;71844;51.528;4.442;2024-03-17T05:14:22;7.00;75.00
82243;DHT22;71844;51.528;4.442;2024-03-17T05:16:52;7.10;75.00
82243;DHT22;71844;51.528;4.442;2024-03-17T05:19:18;7.10;75.00
82243;DHT22;71844;51.528;4.442;2024-03-17T05:21:45;7.10;75.10
82243;DHT22;71844;51.528;4.442;2024-03-17T05:24:10;7.20;75.10
82243;DHT22;71844;51.528;4.442;2024-03-17T05:26:38;7.20;75.10
82243;DHT22;71844;51.528;4.442;2024-03-17T05:29:04;7.20;75.10
82243;DHT22;71844;51.528;4.442;2024-03-17T05:31:30;7.30;75.20
82243;DHT22;71844;51.528;4.442;2024-03-17T05:33:57;7.30;75.20
82243;DHT22;71844;51.528;4.442;2024-03-17T05:36:23;7.30;75.10
82243;DHT22;71844;51.528;4.442;2024-03-17T05:38:48;7.40;75.10
82243;DHT22;71844;51.528;4.442;2024-03-17T05:41:14;7.40;75.10
82243;DHT22;71844;51.528;4.442;2024-03-17T05:43:40;7.40;75.10
82243;DHT22;71844;51.528;4.442;2024-03-17T05:46:11;7.50;75.10
82243;DHT22;71844;51.528;4.442;2024-03-17T05:48:39;7.50;75.00
82243;DHT22;71844;51.528;4.442;2024-03-17T05:53:32;7.50;75.10
82243;DHT22;71844;51.528;4.442;2024-03-17T05:56:02;7.50;75.10
82243;DHT22;71844;51.528;4.442;2024-03-17T05:58:28;7.60;75.10
82243;DHT22;71844;51.528;4.442;2024-03-17T06:00:54;7.60;75.10
82243;DHT22;71844;51.528;4.442;2024-03-17T06:03:20;7.60;75.10
82243;DHT22;71844;51.528;4.442;2024-03-17T06:05:48;7.60;75.10
82243;DHT22;71844;51.528;4.442;2024-03-17T06:08:14;7.60;75.20
82243;DHT22;71844;51.528;4.442;2024-03-17T06:10:45;7.60;75.10
82243;DHT22;71844;51.528;4.442;2024-03-17T06:13:12;7.70;75.10
82243;DHT22;71844;51.528;4.442;2024-03-17T06:15:39;7.70;75.10
82243;DHT22;71844;51.528;4.442;2024-03-17T06:18:06;7.70;75.10
82243;DHT22;71844;51.528;4.442;2024-03-17T06:20:35;7.70;75.20
82243;DHT22;71844;51.528;4.442;2024-03-17T06:23:00;7.70;75.10
82243;DHT22;71844;51.528;4.442;2024-03-17T06:25:26;7.70;75.10
82243;DHT22;71844;51.528;4.442;2024-03-17T06:27:54;7.80;75.00
82243;DHT22;71844;51.528;4.442;2024-03-17T06:30:20;7.80;75.00
82243;DHT22;71844;51.528;4.442;2024-03-17T06:32:46;7.80;75.00
82243;DHT22;71844;51.528;4.442;2024-03-17T06:35:14;7.80;75.00
82243;DHT22;71844;51.528;4.442;2024-03-17T06:37:51;7.80;74.90
82243;DHT22;71844;51.528;4.442;2024-03-17T06:40:18;7.80;74.90
82243;DHT22;71844;51.528;4.442;2024-03-17T06:42:44;7.80;74.90
82243;DHT22;71844;51.528;4.442;2024-03-17T06:45:10;7.80;75.00
82243;DHT22;71844;51.528;4.442;2024-03-17T06:47:37;7.80;74.90
82243;DHT22;71844;51.528;4.442;2024-03-17T06:50:31;7.90;75.00
82243;DHT22;71844;51.528;4.442;2024-03-17T06:52:57;7.90;74.90
82243;DHT22;71844;51.528;4.442;2024-03-17T06:55:23;7.90;75.00
82243;DHT22;71844;51.528;4.442;2024-03-17T06:57:50;7.90;75.00
82243;DHT22;71844;51.528;4.442;2024-03-17T07:00:17;7.90;75.00
82243;DHT22;71844;51.528;4.442;2024-03-17T07:02:49;8.00;74.90
82243;DHT22;71844;51.528;4.442;2024-03-17T07:05:15;8.00;74.90
82243;DHT22;71844;51.528;4.442;2024-03-17T07:07:42;8.00;74.90
82243;DHT22;71844;51.528;4.442;2024-03-17T07:10:08;8.10;75.00
82243;DHT22;71844;51.528;4.442;2024-03-17T07:12:34;8.10;74.90
82243;DHT22;71844;51.528;4.442;2024-03-17T07:15:00;8.10;74.90
82243;DHT22;71844;51.528;4.442;2024-03-17T07:17:26;8.20;74.90
82243;DHT22;71844;51.528;4.442;2024-03-17T07:19:52;8.20;74.90
82243;DHT22;71844;51.528;4.442;2024-03-17T07:22:18;8.20;74.90
82243;DHT22;71844;51.528;4.442;2024-03-17T07:24:44;8.20;74.80
82243;DHT22;71844;51.528;4.442;2024-03-17T07:27:10;8.30;74.90
82243;DHT22;71844;51.528;4.442;2024-03-17T07:29:39;8.30;74.90
82243;DHT22;71844;51.528;4.442;2024-03-17T07:32:05;8.40;74.90
82243;DHT22;71844;51.528;4.442;2024-03-17T07:34:32;8.40;74.90
82243;DHT22;71844;51.528;4.442;2024-03-17T07:36:59;8.40;74.80
82243;DHT22;71844;51.528;4.442;2024-03-17T07:39:32;8.50;74.90
82243;DHT22;71844;51.528;4.442;2024-03-17T07:41:59;8.50;74.90
82243;DHT22;71844;51.528;4.442;2024-03-17T07:44:25;8.60;74.80
82243;DHT22;71844;51.528;4.442;2024-03-17T07:46:56;8.60;74.70
82243;DHT22;71844;51.528;4.442;2024-03-17T07:49:23;8.70;74.70
82243;DHT22;71844;51.528;4.442;2024-03-17T07:51:49;8.70;74.70
82243;DHT22;71844;51.528;4.442;2024-03-17T07:54:14;8.80;74.70
82243;DHT22;71844;51.528;4.442;2024-03-17T07:56:40;8.80;74.50
82243;DHT22;71844;51.528;4.442;2024-03-17T07:59:06;8.80;74.40
82243;DHT22;71844;51.528;4.442;2024-03-17T08:01:38;8.90;74.40
82243;DHT22;71844;51.528;4.442;2024-03-17T08:04:04;8.90;74.30
82243;DHT22;71844;51.528;4.442;2024-03-17T08:06:30;8.90;74.30
82243;DHT22;71844;51.528;4.442;2024-03-17T08:08:56;8.90;74.30
82243;DHT22;71844;51.528;4.442;2024-03-17T08:11:23;9.00;74.20
82243;DHT22;71844;51.528;4.442;2024-03-17T08:13:50;9.00;74.30
82243;DHT22;71844;51.528;4.442;2024-03-17T08:16:16;9.00;74.20
82243;DHT22;71844;51.528;4.442;2024-03-17T08:18:42;9.10;74.30
82243;DHT22;71844;51.528;4.442;2024-03-17T08:21:08;9.20;74.30
82243;DHT22;71844;51.528;4.442;2024-03-17T08:23:35;9.30;74.30
82243;DHT22;71844;51.528;4.442;2024-03-17T08:26:05;9.50;74.10
82243;DHT22;71844;51.528;4.442;2024-03-17T08:28:31;9.50;73.90
82243;DHT22;71844;51.528;4.442;2024-03-17T08:31:01;9.70;73.90
82243;DHT22;71844;51.528;4.442;2024-03-17T08:33:28;9.80;73.80
82243;DHT22;71844;51.528;4.442;2024-03-17T08:36:04;9.90;73.80
82243;DHT22;71844;51.528;4.442;2024-03-17T08:38:31;10.10;73.60
82243;DHT22;71844;51.528;4.442;2024-03-17T08:41:05;10.20;73.30
82243;DHT22;71844;51.528;4.442;2024-03-17T08:43:31;10.30;72.90
82243;DHT22;71844;51.528;4.442;2024-03-17T08:48:27;10.50;72.60
82243;DHT22;71844;51.528;4.442;2024-03-17T08:50:55;10.50;71.40
82243;DHT22;71844;51.528;4.442;2024-03-17T08:53:21;10.50;72.30
82243;DHT22;71844;51.528;4.442;2024-03-17T08:55:48;10.50;72.10
82243;DHT22;71844;51.528;4.442;2024-03-17T08:58:14;10.50;72.00
82243;DHT22;71844;51.528;4.442;2024-03-17T09:00:40;10.50;72.10
82243;DHT22;71844;51.528;4.442;2024-03-17T09:03:07;10.60;72.10
82243;DHT22;71844;51.528;4.442;2024-03-17T09:05:38;10.60;71.90
82243;DHT22;71844;51.528;4.442;2024-03-17T09:08:09;10.60;71.80
82243;DHT22;71844;51.528;4.442;2024-03-17T09:10:40;10.60;71.90
82243;DHT22;71844;51.528;4.442;2024-03-17T09:13:08;10.70;71.80
82243;DHT22;71844;51.528;4.442;2024-03-17T09:15:38;10.70;71.90
82243;DHT22;71844;51.528;4.442;2024-03-17T09:18:03;10.80;71.80
82243;DHT22;71844;51.528;4.442;2024-03-17T09:20:29;10.90;71.60
82243;DHT22;71844;51.528;4.442;2024-03-17T09:22:57;10.90;71.50
82243;DHT22;71844;51.528;4.442;2024-03-17T09:25:23;11.00;71.50
82243;DHT22;71844;51.528;4.442;2024-03-17T09:27:49;11.10;71.40
82243;DHT22;71844;51.528;4.442;2024-03-17T09:30:15;11.10;71.30
82243;DHT22;71844;51.528;4.442;2024-03-17T09:32:40;11.20;71.30
82243;DHT22;71844;51.528;4.442;2024-03-17T09:35:07;11.20;71.30
82243;DHT22;71844;51.528;4.442;2024-03-17T09:37:33;11.30;71.30
82243;DHT22;71844;51.528;4.442;2024-03-17T09:39:59;11.40;71.30
82243;DHT22;71844;51.528;4.442;2024-03-17T09:42:29;11.40;71.30
82243;DHT22;71844;51.528;4.442;2024-03-17T09:44:55;11.60;71.20
82243;DHT22;71844;51.528;4.442;2024-03-17T09:47:23;11.70;71.10
82243;DHT22;71844;51.528;4.442;2024-03-17T09:49:50;11.70;71.10
82243;DHT22;71844;51.528;4.442;2024-03-17T09:52:25;11.80;71.10
82243;DHT22;71844;51.528;4.442;2024-03-17T09:55:15;12.00;71.00
82243;DHT22;71844;51.528;4.442;2024-03-17T09:57:41;12.20;70.80
82243;DHT22;71844;51.528;4.442;2024-03-17T10:00:13;12.30;70.70
82243;DHT22;71844;51.528;4.442;2024-03-17T10:02:43;12.40;70.50
82243;DHT22;71844;51.528;4.442;2024-03-17T10:05:24;12.50;70.30
82243;DHT22;71844;51.528;4.442;2024-03-17T10:07:51;12.50;70.00
82243;DHT22;71844;51.528;4.442;2024-03-17T10:10:18;12.50;70.30
82243;DHT22;71844;51.528;4.442;2024-03-17T10:12:52;12.50;70.20
82243;DHT22;71844;51.528;4.442;2024-03-17T10:15:18;12.50;70.20
82243;DHT22;71844;51.528;4.442;2024-03-17T10:17:46;12.50;70.30
82243;DHT22;71844;51.528;4.442;2024-03-17T10:23:03;12.40;70.50
82243;DHT22;71844;51.528;4.442;2024-03-17T10:25:32;12.40;70.60
82243;DHT22;71844;51.528;4.442;2024-03-17T10:27:58;12.40;70.50
82243;DHT22;71844;51.528;4.442;2024-03-17T10:30:25;12.30;70.80
82243;DHT22;71844;51.528;4.442;2024-03-17T10:32:56;12.30;71.00
82243;DHT22;71844;51.528;4.442;2024-03-17T10:35:40;12.30;71.20
82243;DHT22;71844;51.528;4.442;2024-03-17T10:38:08;12.30;71.60
82243;DHT22;71844;51.528;4.442;2024-03-17T10:40:35;12.30;71.70
82243;DHT22;71844;51.528;4.442;2024-03-17T10:43:06;12.30;72.00
82243;DHT22;71844;51.528;4.442;2024-03-17T10:45:33;12.30;72.30
82243;DHT22;71844;51.528;4.442;2024-03-17T10:48:03;12.30;72.50
82243;DHT22;71844;51.528;4.442;2024-03-17T10:50:36;12.30;72.70
82243;DHT22;71844;51.528;4.442;2024-03-17T10:53:06;12.30;73.00
82243;DHT22;71844;51.528;4.442;2024-03-17T10:56:03;12.40;73.00
82243;DHT22;71844;51.528;4.442;2024-03-17T10:58:34;12.40;73.20
82243;DHT22;71844;51.528;4.442;2024-03-17T11:01:04;12.50;73.30
82243;DHT22;71844;51.528;4.442;2024-03-17T11:03:34;12.50;73.30
82243;DHT22;71844;51.528;4.442;2024-03-17T11:06:02;12.60;73.50
82243;DHT22;71844;51.528;4.442;2024-03-17T11:08:31;12.60;73.60
82243;DHT22;71844;51.528;4.442;2024-03-17T11:10:58;12.70;73.70
82243;DHT22;71844;51.528;4.442;2024-03-17T11:13:26;12.80;73.70
82243;DHT22;71844;51.528;4.442;2024-03-17T11:15:53;12.90;73.70
82243;DHT22;71844;51.528;4.442;2024-03-17T11:21:01;13.00;74.20
82243;DHT22;71844;51.528;4.442;2024-03-17T11:23:33;13.10;74.40
82243;DHT22;71844;51.528;4.442;2024-03-17T11:26:00;13.10;74.30
82243;DHT22;71844;51.528;4.442;2024-03-17T11:31:42;13.30;74.50
82243;DHT22;71844;51.528;4.442;2024-03-17T11:34:29;13.40;74.80
82243;DHT22;71844;51.528;4.442;2024-03-17T11:36:56;13.40;74.60
82243;DHT22;71844;51.528;4.442;2024-03-17T11:39:49;13.50;74.40
82243;DHT22;71844;51.528;4.442;2024-03-17T11:42:16;13.50;74.60
82243;DHT22;71844;51.528;4.442;2024-03-17T11:44:57;13.60;74.50
82243;DHT22;71844;51.528;4.442;2024-03-17T11:47:28;13.70;74.60
82243;DHT22;71844;51.528;4.442;2024-03-17T11:50:02;13.80;74.70
82243;DHT22;71844;51.528;4.442;2024-03-17T11:52:28;13.90;74.70
82243;DHT22;71844;51.528;4.442;2024-03-17T11:54:54;14.10;74.80
82243;DHT22;71844;51.528;4.442;2024-03-17T11:57:25;14.30;74.80
82243;DHT22;71844;51.528;4.442;2024-03-17T11:59:53;14.60;74.40
82243;DHT22;71844;51.528;4.442;2024-03-17T12:02:20;14.90;73.70
82243;DHT22;71844;51.528;4.442;2024-03-17T12:04:46;15.10;73.10
82243;DHT22;71844;51.528;4.442;2024-03-17T12:07:15;15.30;72.30
82243;DHT22;71844;51.528;4.442;2024-03-17T12:09:42;15.40;71.60
82243;DHT22;71844;51.528;4.442;2024-03-17T12:12:10;15.40;71.30
82243;DHT22;71844;51.528;4.442;2024-03-17T12:14:39;15.50;71.20
82243;DHT22;71844;51.528;4.442;2024-03-17T12:17:10;15.70;71.20
82243;DHT22;71844;51.528;4.442;2024-03-17T12:19:36;15.90;70.70
82243;DHT22;71844;51.528;4.442;2024-03-17T12:22:04;16.00;70.20
82243;DHT22;71844;51.528;4.442;2024-03-17T12:24:32;16.00;69.90
82243;DHT22;71844;51.528;4.442;2024-03-17T12:27:00;16.00;69.70
82243;DHT22;71844;51.528;4.442;2024-03-17T12:29:31;16.10;69.40
82243;DHT22;71844;51.528;4.442;2024-03-17T12:32:03;16.10;69.10
82243;DHT22;71844;51.528;4.442;2024-03-17T12:34:32;16.10;68.80
82243;DHT22;71844;51.528;4.442;2024-03-17T12:37:00;16.20;68.60
82243;DHT22;71844;51.528;4.442;2024-03-17T12:39:34;16.30;68.30
82243;DHT22;71844;51.528;4.442;2024-03-17T12:42:17;16.30;67.70
82243;DHT22;71844;51.528;4.442;2024-03-17T12:44:49;16.30;67.40
82243;DHT22;71844;51.528;4.442;2024-03-17T12:47:18;16.40;67.40
82243;DHT22;71844;51.528;4.442;2024-03-17T12:49:54;16.40;67.20
82243;DHT22;71844;51.528;4.442;2024-03-17T12:52:31;16.40;67.00
82243;DHT22;71844;51.528;4.442;2024-03-17T12:54:58;16.50;66.60
82243;DHT22;71844;51.528;4.442;2024-03-17T12:57:43;16.80;67.00
82243;DHT22;71844;51.528;4.442;2024-03-17T13:00:28;17.30;66.50
82243;DHT22;71844;51.528;4.442;2024-03-17T13:03:01;17.70;65.30
82243;DHT22;71844;51.528;4.442;2024-03-17T13:05:28;17.70;64.30
82243;DHT22;71844;51.528;4.442;2024-03-17T13:07:54;17.60;63.90
82243;DHT22;71844;51.528;4.442;2024-03-17T13:10:23;17.40;63.50
82243;DHT22;71844;51.528;4.442;2024-03-17T13:13:05;17.10;63.50
82243;DHT22;71844;51.528;4.442;2024-03-17T13:15:33;17.10;63.50
82243;DHT22;71844;51.528;4.442;2024-03-17T13:18:03;17.20;63.90
82243;DHT22;71844;51.528;4.442;2024-03-17T13:20:30;17.60;63.60
82243;DHT22;71844;51.528;4.442;2024-03-17T13:22:56;18.10;63.00
82243;DHT22;71844;51.528;4.442;2024-03-17T13:25:30;18.40;62.00
82243;DHT22;71844;51.528;4.442;2024-03-17T13:28:00;18.50;61.30
82243;DHT22;71844;51.528;4.442;2024-03-17T13:30:27;18.60;60.80
82243;DHT22;71844;51.528;4.442;2024-03-17T13:32:54;18.60;60.10
82243;DHT22;71844;51.528;4.442;2024-03-17T13:35:28;18.50;59.80
82243;DHT22;71844;51.528;4.442;2024-03-17T13:37:58;18.40;59.70
82243;DHT22;71844;51.528;4.442;2024-03-17T13:40:28;18.30;59.60
82243;DHT22;71844;51.528;4.442;2024-03-17T13:42:56;18.10;59.70
82243;DHT22;71844;51.528;4.442;2024-03-17T13:45:25;17.90;59.60
82243;DHT22;71844;51.528;4.442;2024-03-17T13:47:58;17.80;59.90
82243;DHT22;71844;51.528;4.442;2024-03-17T13:50:25;17.70;60.00
82243;DHT22;71844;51.528;4.442;2024-03-17T13:52:51;17.70;60.30
82243;DHT22;71844;51.528;4.442;2024-03-17T13:55:19;17.90;60.20
82243;DHT22;71844;51.528;4.442;2024-03-17T13:57:53;17.90;59.60
82243;DHT22;71844;51.528;4.442;2024-03-17T14:02:58;17.50;59.70
82243;DHT22;71844;51.528;4.442;2024-03-17T14:05:27;17.40;59.80
82243;DHT22;71844;51.528;4.442;2024-03-17T14:07:54;17.20;60.10
82243;DHT22;71844;51.528;4.442;2024-03-17T14:10:22;17.10;60.50
82243;DHT22;71844;51.528;4.442;2024-03-17T14:12:48;17.00;60.80
82243;DHT22;71844;51.528;4.442;2024-03-17T14:15:15;16.80;61.10
82243;DHT22;71844;51.528;4.442;2024-03-17T14:17:46;16.70;61.50
82243;DHT22;71844;51.528;4.442;2024-03-17T14:20:13;16.50;61.80
82243;DHT22;71844;51.528;4.442;2024-03-17T14:22:41;16.40;62.30
82243;DHT22;71844;51.528;4.442;2024-03-17T14:25:16;16.20;62.60
82243;DHT22;71844;51.528;4.442;2024-03-17T14:27:43;16.00;63.00
82243;DHT22;71844;51.528;4.442;2024-03-17T14:30:15;16.00;63.40
82243;DHT22;71844;51.528;4.442;2024-03-17T14:32:41;15.80;63.70
82243;DHT22;71844;51.528;4.442;2024-03-17T14:35:13;15.80;63.90
82243;DHT22;71844;51.528;4.442;2024-03-17T14:37:41;15.70;64.20
82243;DHT22;71844;51.528;4.442;2024-03-17T14:40:09;15.60;64.70
82243;DHT22;71844;51.528;4.442;2024-03-17T14:42:43;15.40;65.10
82243;DHT22;71844;51.528;4.442;2024-03-17T14:45:10;15.30;65.40
82243;DHT22;71844;51.528;4.442;2024-03-17T14:47:36;15.20;65.80
82243;DHT22;71844;51.528;4.442;2024-03-17T14:50:02;15.10;66.40
82243;DHT22;71844;51.528;4.442;2024-03-17T14:52:28;15.00;67.00
82243;DHT22;71844;51.528;4.442;2024-03-17T14:54:54;14.90;67.30
82243;DHT22;71844;51.528;4.442;2024-03-17T14:57:22;14.80;67.90
82243;DHT22;71844;51.528;4.442;2024-03-17T14:59:48;14.80;68.70
82243;DHT22;71844;51.528;4.442;2024-03-17T15:02:14;14.70;69.10
82243;DHT22;71844;51.528;4.442;2024-03-17T15:04:41;14.70;69.60
82243;DHT22;71844;51.528;4.442;2024-03-17T15:07:07;14.80;69.60
82243;DHT22;71844;51.528;4.442;2024-03-17T15:09:34;14.70;69.90
82243;DHT22;71844;51.528;4.442;2024-03-17T15:12:00;14.70;70.00
82243;DHT22;71844;51.528;4.442;2024-03-17T15:14:28;14.70;69.90
82243;DHT22;71844;51.528;4.442;2024-03-17T15:16:54;14.70;70.30
82243;DHT22;71844;51.528;4.442;2024-03-17T15:19:20;14.60;70.50
82243;DHT22;71844;51.528;4.442;2024-03-17T15:21:46;14.60;70.80
82243;DHT22;71844;51.528;4.442;2024-03-17T15:24:12;14.50;70.90
82243;DHT22;71844;51.528;4.442;2024-03-17T15:26:39;14.50;71.20
82243;DHT22;71844;51.528;4.442;2024-03-17T15:29:04;14.40;71.40
82243;DHT22;71844;51.528;4.442;2024-03-17T15:31:31;14.40;71.70
82243;DHT22;71844;51.528;4.442;2024-03-17T15:33:57;14.30;71.70
82243;DHT22;71844;51.528;4.442;2024-03-17T15:36:23;14.20;72.20
82243;DHT22;71844;51.528;4.442;2024-03-17T15:38:52;14.20;72.70
82243;DHT22;71844;51.528;4.442;2024-03-17T15:41:18;14.20;74.40
82243;DHT22;71844;51.528;4.442;2024-03-17T15:43:44;14.10;73.00
82243;DHT22;71844;51.528;4.442;2024-03-17T15:46:15;14.10;73.00
82243;DHT22;71844;51.528;4.442;2024-03-17T15:48:42;14.00;73.40
82243;DHT22;71844;51.528;4.442;2024-03-17T15:51:08;14.00;73.70
82243;DHT22;71844;51.528;4.442;2024-03-17T15:53:34;14.00;74.10
82243;DHT22;71844;51.528;4.442;2024-03-17T15:56:01;14.00;74.30
82243;DHT22;71844;51.528;4.442;2024-03-17T15:58:29;14.00;74.20
82243;DHT22;71844;51.528;4.442;2024-03-17T16:00:58;14.00;74.50
82243;DHT22;71844;51.528;4.442;2024-03-17T16:03:31;14.00;74.70
82243;DHT22;71844;51.528;4.442;2024-03-17T16:06:11;13.90;74.80
82243;DHT22;71844;51.528;4.442;2024-03-17T16:08:39;13.90;75.00
82243;DHT22;71844;51.528;4.442;2024-03-17T16:11:06;13.90;75.20